createdAt,value
2023-05-06T00:01:09.434Z,99054.00
2023-05-06T00:03:44.555Z,99052.75
2023-05-06T00:06:16.494Z,99068.31
2023-05-06T00:08:48.284Z,99067.28
2023-05-06T00:11:20.095Z,99073.47
2023-05-06T00:13:51.997Z,99092.63
2023-05-06T00:16:23.800Z,99089.00
2023-05-06T00:18:55.661Z,99087.63
2023-05-06T00:21:27.629Z,99089.78
2023-05-06T00:23:59.432Z,99088.81
2023-05-06T00:26:31.272Z,99082.03
2023-05-06T00:29:02.992Z,99072.69
2023-05-06T00:31:34.773Z,99076.41
2023-05-06T00:34:06.579Z,99070.81
2023-05-06T00:36:38.532Z,99067.72
2023-05-06T00:39:10.391Z,99066.34
2023-05-06T00:41:42.131Z,99073.53
2023-05-06T00:44:13.883Z,99088.72
2023-05-06T00:46:45.929Z,99083.22
2023-05-06T00:49:17.729Z,99089.38
2023-05-06T00:51:53.969Z,99086.69
2023-05-06T00:54:27.345Z,99100.63
2023-05-06T00:56:59.163Z,99109.88
2023-05-06T00:59:35.443Z,99109.88
2023-05-06T01:02:07.183Z,99116.03
2023-05-06T01:04:41.518Z,99121.59
2023-05-06T01:07:39.885Z,99109.91
2023-05-06T01:10:28.124Z,99102.94
2023-05-06T01:13:12.320Z,99095.41
2023-05-06T01:15:52.612Z,99088.28
2023-05-06T01:18:26.892Z,99086.44
2023-05-06T01:21:04.643Z,99082.94
2023-05-06T01:23:57.735Z,99073.09
2023-05-06T01:26:29.858Z,99080.06
2023-05-06T01:29:02.487Z,99078.59
2023-05-06T01:31:45.770Z,99085.16
2023-05-06T01:34:17.410Z,99083.72
2023-05-06T01:37:13.841Z,99079.59
2023-05-06T01:39:46.731Z,99076.31
2023-05-06T01:42:19.162Z,99080.41
2023-05-06T01:44:53.195Z,99077.28
2023-05-06T01:47:25.832Z,99078.94
2023-05-06T01:49:58.522Z,99083.84
2023-05-06T01:52:30.332Z,99077.91
2023-05-06T01:55:02.107Z,99086.00
2023-05-06T01:57:34.976Z,99082.94
2023-05-06T02:00:07.386Z,99092.41
2023-05-06T02:02:43.902Z,99084.81
2023-05-06T02:05:15.837Z,99076.63
2023-05-06T02:07:51.840Z,99087.28
2023-05-06T02:10:24.161Z,99088.13
2023-05-06T02:13:02.672Z,99084.66
2023-05-06T02:15:34.585Z,99078.91
2023-05-06T02:18:07.412Z,99093.50
2023-05-06T02:20:39.946Z,99094.97
2023-05-06T02:23:11.933Z,99090.50
2023-05-06T02:25:44.654Z,99097.09
2023-05-06T02:28:17.868Z,99088.31
2023-05-06T02:30:49.637Z,99082.38
2023-05-06T02:33:21.881Z,99075.03
2023-05-06T02:35:53.685Z,99071.53
2023-05-06T02:38:26.084Z,99075.03
2023-05-06T02:40:58.366Z,99072.38
2023-05-06T02:43:31.278Z,99080.16
2023-05-06T02:46:03.665Z,99071.34
2023-05-06T02:48:35.458Z,99078.16
2023-05-06T02:51:08.818Z,99079.38
2023-05-06T02:53:40.595Z,99073.22
2023-05-06T02:56:12.329Z,99076.91
2023-05-06T02:58:44.148Z,99071.59
2023-05-06T03:01:15.956Z,99065.66
2023-05-06T03:03:48.057Z,99057.47
2023-05-06T03:06:19.761Z,99057.28
2023-05-06T03:08:51.818Z,99062.59
2023-05-06T03:11:23.573Z,99056.03
2023-05-06T03:13:55.376Z,99050.50
2023-05-06T03:16:27.569Z,99052.56
2023-05-06T03:19:03.931Z,99058.50
2023-05-06T03:21:37.612Z,99051.13
2023-05-06T03:24:09.419Z,99048.66
2023-05-06T03:26:41.222Z,99048.28
2023-05-06T03:29:14.252Z,99051.75
2023-05-06T03:31:51.415Z,99055.63
2023-05-06T03:34:25.680Z,99069.13
2023-05-06T03:36:58.069Z,99067.09
2023-05-06T03:39:32.186Z,99067.09
2023-05-06T03:42:08.576Z,99063.81
2023-05-06T03:44:41.876Z,99058.50
2023-05-06T03:47:13.684Z,99060.13
2023-05-06T03:49:45.470Z,99066.06
2023-05-06T03:52:18.185Z,99064.84
2023-05-06T03:54:53.313Z,99068.53
2023-05-06T03:57:25.295Z,99068.72
2023-05-06T03:59:57.046Z,99075.50
2023-05-06T04:02:30.714Z,99075.88
2023-05-06T04:05:04.023Z,99078.34
2023-05-06T04:07:38.869Z,99079.19
2023-05-06T04:10:11.433Z,99075.88
2023-05-06T04:12:44.973Z,99079.38
2023-05-06T04:15:19.334Z,99072.22
2023-05-06T04:17:51.075Z,99083.88
2023-05-06T04:20:25.330Z,99077.94
2023-05-06T04:22:57.742Z,99084.88
2023-05-06T04:25:30.220Z,99090.22
2023-05-06T04:28:01.904Z,99085.50
2023-05-06T04:30:34.212Z,99085.91
2023-05-06T04:33:07.423Z,99082.44
2023-05-06T04:35:40.523Z,99093.09
2023-05-06T04:38:15.812Z,99082.44
2023-05-06T04:40:48.395Z,99086.53
2023-05-06T04:43:21.364Z,99086.34
2023-05-06T04:45:57.427Z,99082.88
2023-05-06T04:48:33.378Z,99090.22
2023-05-06T04:51:06.656Z,99086.34
2023-05-06T04:53:39.051Z,99086.34
2023-05-06T04:56:10.892Z,99082.66
2023-05-06T04:58:42.702Z,99087.56
2023-05-06T05:01:15.183Z,99096.56
2023-05-06T05:03:49.657Z,99105.78
2023-05-06T05:06:24.300Z,99104.75
2023-05-06T05:08:57.277Z,99101.06
2023-05-06T05:11:29.651Z,99101.06
2023-05-06T05:14:03.400Z,99098.00
2023-05-06T05:16:36.179Z,99097.78
2023-05-06T05:19:09.655Z,99103.13
2023-05-06T05:21:41.805Z,99106.19
2023-05-06T05:24:15.995Z,99100.03
2023-05-06T05:26:47.730Z,99103.94
2023-05-06T05:29:21.121Z,99109.84
2023-05-06T05:31:53.144Z,99105.34
2023-05-06T05:34:24.830Z,99106.78
2023-05-06T05:36:59.828Z,99112.75
2023-05-06T05:39:31.680Z,99112.97
2023-05-06T05:42:06.386Z,99120.50
2023-05-06T05:44:41.153Z,99116.22
2023-05-06T05:47:12.972Z,99117.84
2023-05-06T05:49:44.822Z,99119.31
2023-05-06T05:52:17.371Z,99122.19
2023-05-06T05:54:52.442Z,99125.66
2023-05-06T05:57:26.971Z,99125.00
2023-05-06T05:59:58.685Z,99115.38
2023-05-06T06:02:34.668Z,99122.13
2023-05-06T06:05:09.801Z,99116.16
2023-05-06T06:07:42.444Z,99114.88
2023-05-06T06:10:15.417Z,99110.75
2023-05-06T06:12:48.289Z,99109.72
2023-05-06T06:15:24.586Z,99100.22
2023-05-06T06:17:58.348Z,99110.81
2023-05-06T06:20:32.388Z,99111.16
2023-05-06T06:23:04.273Z,99110.25
2023-05-06T06:25:36.016Z,99114.91
2023-05-06T06:28:07.775Z,99116.66
2023-05-06T06:30:39.521Z,99117.78
2023-05-06T06:33:11.638Z,99118.75
2023-05-06T06:35:44.930Z,99130.91
2023-05-06T06:38:16.655Z,99129.38
2023-05-06T06:40:48.398Z,99132.72
2023-05-06T06:43:20.221Z,99139.28
2023-05-06T06:46:01.256Z,99142.28
2023-05-06T06:48:33.016Z,99134.81
2023-05-06T06:51:05.147Z,99138.41
2023-05-06T06:53:36.968Z,99141.16
2023-05-06T06:56:10.931Z,99141.56
2023-05-06T06:58:42.797Z,99143.88
2023-05-06T07:01:14.546Z,99138.47
2023-05-06T07:03:46.873Z,99130.75
2023-05-06T07:06:18.640Z,99136.41
2023-05-06T07:08:52.582Z,99142.44
2023-05-06T07:11:24.441Z,99142.63
2023-05-06T07:13:56.246Z,99140.31
2023-05-06T07:16:28.202Z,99150.56
2023-05-06T07:19:01.066Z,99139.34
2023-05-06T07:21:33.088Z,99140.38
2023-05-06T07:24:05.035Z,99145.16
2023-05-06T07:26:38.339Z,99136.97
2023-05-06T07:29:10.198Z,99142.81
2023-05-06T07:31:41.958Z,99147.56
2023-05-06T07:34:13.711Z,99150.88
2023-05-06T07:36:45.527Z,99151.69
2023-05-06T07:39:18.537Z,99146.06
2023-05-06T07:41:50.251Z,99150.47
2023-05-06T07:44:22.000Z,99152.75
2023-05-06T07:46:54.224Z,99150.66
2023-05-06T07:49:28.786Z,99162.38
2023-05-06T07:52:00.629Z,99167.41
2023-05-06T07:54:32.416Z,99171.63
2023-05-06T07:57:04.221Z,99178.16
2023-05-06T07:59:38.064Z,99174.03
2023-05-06T08:02:10.078Z,99168.91
2023-05-06T08:04:42.795Z,99184.97
2023-05-06T08:07:15.820Z,99176.84
2023-05-06T08:09:47.542Z,99185.41
2023-05-06T08:12:19.224Z,99184.47
2023-05-06T08:14:50.947Z,99188.97
2023-05-06T08:17:22.708Z,99188.25
2023-05-06T08:19:55.559Z,99192.28
2023-05-06T08:22:27.333Z,99196.84
2023-05-06T08:24:59.250Z,99195.28
2023-05-06T08:27:31.172Z,99190.53
2023-05-06T08:30:02.948Z,99188.34
2023-05-06T08:32:34.699Z,99199.53
2023-05-06T08:35:07.419Z,99191.53
2023-05-06T08:37:41.132Z,99195.69
2023-05-06T08:40:23.444Z,99206.94
2023-05-06T08:42:56.121Z,99202.16
2023-05-06T08:45:29.553Z,99198.03
2023-05-06T08:48:01.481Z,99207.81
2023-05-06T08:50:38.360Z,99208.22
2023-05-06T08:53:15.877Z,99204.63
2023-05-06T08:55:51.648Z,99210.44
2023-05-06T08:58:25.073Z,99199.31
2023-05-06T09:00:57.381Z,99200.25
2023-05-06T09:03:29.669Z,99199.59
2023-05-06T09:06:02.431Z,99194.88
2023-05-06T09:08:37.425Z,99197.41
2023-05-06T09:11:38.921Z,99189.19
2023-05-06T09:14:13.674Z,99186.09
2023-05-06T09:16:48.169Z,99186.06
2023-05-06T09:19:21.747Z,99189.84
2023-05-06T09:21:53.551Z,99190.50
2023-05-06T09:24:25.774Z,99184.28
2023-05-06T09:26:57.612Z,99182.41
2023-05-06T09:29:29.299Z,99188.13
2023-05-06T09:32:07.898Z,99192.59
2023-05-06T09:34:42.101Z,99188.50
2023-05-06T09:37:13.866Z,99187.00
2023-05-06T09:39:45.901Z,99186.91
2023-05-06T09:42:17.642Z,99189.56
2023-05-06T09:44:50.386Z,99186.38
2023-05-06T09:47:27.265Z,99179.56
2023-05-06T09:49:59.468Z,99181.63
2023-05-06T09:52:31.662Z,99182.13
2023-05-06T09:55:04.420Z,99174.69
2023-05-06T09:57:37.175Z,99175.38
2023-05-06T10:00:12.050Z,99173.72
2023-05-06T10:02:48.385Z,99172.75
2023-05-06T10:05:21.208Z,99166.72
2023-05-06T10:07:54.809Z,99165.16
2023-05-06T10:10:28.415Z,99169.13
2023-05-06T10:13:02.847Z,99176.84
2023-05-06T10:15:34.892Z,99167.03
2023-05-06T10:18:08.577Z,99169.16
2023-05-06T10:20:42.247Z,99162.50
2023-05-06T10:23:13.990Z,99162.63
2023-05-06T10:25:46.859Z,99152.47
2023-05-06T10:28:30.400Z,99157.72
2023-05-06T10:31:04.756Z,99162.53
2023-05-06T10:33:36.614Z,99154.84
2023-05-06T10:36:22.666Z,99151.84
2023-05-06T10:39:03.635Z,99150.69
2023-05-06T10:41:37.141Z,99151.75
2023-05-06T10:44:12.786Z,99161.34
2023-05-06T10:46:59.709Z,99152.94
2023-05-06T10:49:31.454Z,99149.75
2023-05-06T10:52:12.388Z,99153.09
2023-05-06T10:54:50.369Z,99149.50
2023-05-06T10:57:26.670Z,99134.91
2023-05-06T10:59:58.872Z,99145.81
2023-05-06T11:02:32.742Z,99148.56
2023-05-06T11:05:05.006Z,99149.63
2023-05-06T11:07:36.766Z,99151.94
2023-05-06T11:10:13.083Z,99157.13
2023-05-06T11:12:50.315Z,99156.72
2023-05-06T11:15:32.997Z,99155.28
2023-05-06T11:18:26.866Z,99162.38
2023-05-06T11:21:00.422Z,99159.47
2023-05-06T11:24:02.668Z,99145.53
2023-05-06T11:26:34.430Z,99154.72
2023-05-06T11:29:09.842Z,99153.50
2023-05-06T11:31:45.282Z,99160.88
2023-05-06T11:34:28.384Z,99172.66
2023-05-06T11:37:05.443Z,99167.78
2023-05-06T11:39:40.774Z,99175.75
2023-05-06T11:42:13.225Z,99177.03
2023-05-06T11:44:44.911Z,99177.88
2023-05-06T11:47:16.582Z,99174.25
2023-05-06T11:49:54.576Z,99169.25
2023-05-06T11:52:26.376Z,99174.84
2023-05-06T11:54:58.090Z,99181.13
2023-05-06T11:57:29.909Z,99180.13
2023-05-06T12:00:02.160Z,99165.25
2023-05-06T12:02:46.649Z,99170.34
2023-05-06T12:05:23.518Z,99172.47
2023-05-06T12:07:55.849Z,99163.75
2023-05-06T12:10:27.621Z,99167.03
2023-05-06T12:13:03.151Z,99163.41
2023-05-06T12:15:36.970Z,99167.34
2023-05-06T12:18:09.835Z,99165.75
2023-05-06T12:20:41.612Z,99173.63
2023-05-06T12:23:16.002Z,99162.97
2023-05-06T12:26:04.901Z,99174.00
2023-05-06T12:28:37.213Z,99171.25
2023-05-06T12:31:22.424Z,99174.38
2023-05-06T12:33:56.092Z,99166.31
2023-05-06T12:36:29.365Z,99165.97
2023-05-06T12:39:01.789Z,99168.31
2023-05-06T12:41:37.712Z,99158.25
2023-05-06T12:44:36.222Z,99160.03
2023-05-06T12:47:18.753Z,99160.25
2023-05-06T12:49:55.250Z,99166.69
2023-05-06T12:52:29.595Z,99170.63
2023-05-06T12:55:01.687Z,99175.06
2023-05-06T12:57:33.406Z,99181.16
2023-05-06T13:00:07.461Z,99183.00
2023-05-06T13:02:39.308Z,99175.19
2023-05-06T13:05:11.695Z,99175.38
2023-05-06T13:07:43.468Z,99170.03
2023-05-06T13:10:15.467Z,99176.13
2023-05-06T13:12:48.531Z,99170.59
2023-05-06T13:15:20.700Z,99172.75
2023-05-06T13:17:52.535Z,99165.47
2023-05-06T13:20:24.383Z,99170.56
2023-05-06T13:22:56.062Z,99169.59
2023-05-06T13:25:27.775Z,99168.66
2023-05-06T13:27:59.451Z,99177.09
2023-05-06T13:30:32.437Z,99169.97
2023-05-06T13:33:04.139Z,99166.31
2023-05-06T13:35:36.016Z,99166.63
2023-05-06T13:38:07.702Z,99168.19
2023-05-06T13:40:39.469Z,99167.31
2023-05-06T13:43:11.801Z,99167.75
2023-05-06T13:45:46.744Z,99160.88
2023-05-06T13:48:18.662Z,99153.06
2023-05-06T13:50:50.569Z,99147.41
2023-05-06T13:53:22.507Z,99157.94
2023-05-06T13:55:54.266Z,99159.09
2023-05-06T13:58:26.086Z,99159.03
2023-05-06T14:00:57.967Z,99159.28
2023-05-06T14:03:29.851Z,99156.69
2023-05-06T14:06:01.647Z,99158.53
2023-05-06T14:08:33.487Z,99153.97
2023-05-06T14:11:05.720Z,99160.97
2023-05-06T14:13:37.901Z,99149.81
2023-05-06T14:16:09.764Z,99158.63
2023-05-06T14:18:41.437Z,99157.88
2023-05-06T14:21:13.172Z,99162.50
2023-05-06T14:23:44.903Z,99158.03
2023-05-06T14:26:16.674Z,99160.72
2023-05-06T14:28:48.362Z,99158.22
2023-05-06T14:31:20.234Z,99155.25
2023-05-06T14:33:51.933Z,99151.13
2023-05-06T14:36:23.814Z,99151.53
2023-05-06T14:38:55.608Z,99161.44
2023-05-06T14:41:27.427Z,99146.63
2023-05-06T14:43:59.405Z,99156.63
2023-05-06T14:46:31.486Z,99159.81
2023-05-06T14:49:03.202Z,99155.28
2023-05-06T14:51:34.994Z,99154.66
2023-05-06T14:54:07.127Z,99160.72
2023-05-06T14:56:39.279Z,99166.94
2023-05-06T14:59:10.967Z,99167.59
2023-05-06T15:01:42.867Z,99162.59
2023-05-06T15:04:14.623Z,99163.34
2023-05-06T15:06:46.459Z,99156.53
2023-05-06T15:09:18.145Z,99166.03
2023-05-06T15:11:49.917Z,99159.81
2023-05-06T15:14:21.600Z,99161.63
2023-05-06T15:16:56.425Z,99166.09
2023-05-06T15:19:28.172Z,99156.38
2023-05-06T15:22:03.477Z,99156.91
2023-05-06T15:24:35.953Z,99169.41
2023-05-06T15:27:07.682Z,99168.59
2023-05-06T15:29:39.537Z,99167.13
2023-05-06T15:32:11.454Z,99168.22
2023-05-06T15:34:45.783Z,99162.09
2023-05-06T15:37:19.410Z,99168.16
2023-05-06T15:39:57.662Z,99170.84
2023-05-06T15:42:29.809Z,99172.66
2023-05-06T15:45:02.767Z,99166.09
2023-05-06T15:47:34.520Z,99175.38
2023-05-06T15:50:16.434Z,99178.22
2023-05-06T15:52:53.927Z,99175.28
2023-05-06T15:55:26.596Z,99176.13
2023-05-06T15:58:00.704Z,99180.22
2023-05-06T16:00:32.885Z,99177.75
2023-05-06T16:03:04.786Z,99173.59
2023-05-06T16:05:36.678Z,99184.00
2023-05-06T16:08:08.544Z,99182.63
2023-05-06T16:10:40.284Z,99188.03
2023-05-06T16:13:12.074Z,99190.72
2023-05-06T16:15:44.106Z,99192.47
2023-05-06T16:18:19.100Z,99188.56
2023-05-06T16:20:50.988Z,99199.81
2023-05-06T16:23:22.840Z,99195.03
2023-05-06T16:26:01.137Z,99206.31
2023-05-06T16:28:34.601Z,99206.78
2023-05-06T16:31:06.558Z,99204.91
2023-05-06T16:33:38.459Z,99200.63
2023-05-06T16:36:12.538Z,99210.53
2023-05-06T16:38:46.443Z,99216.16
2023-05-06T16:41:24.180Z,99215.38
2023-05-06T16:43:56.106Z,99218.03
2023-05-06T16:46:28.947Z,99220.56
2023-05-06T16:49:03.611Z,99218.81
2023-05-06T16:51:35.481Z,99222.09
2023-05-06T16:54:07.275Z,99232.91
2023-05-06T16:56:50.628Z,99231.72
2023-05-06T16:59:24.464Z,99230.34
2023-05-06T17:01:56.274Z,99227.72
2023-05-06T17:04:28.106Z,99236.94
2023-05-06T17:06:59.841Z,99240.66
2023-05-06T17:09:31.552Z,99234.84
2023-05-06T17:12:05.652Z,99243.34
2023-05-06T17:14:37.411Z,99247.78
2023-05-06T17:17:11.606Z,99247.19
2023-05-06T17:19:43.556Z,99254.69
2023-05-06T17:22:15.356Z,99247.78
2023-05-06T17:24:47.418Z,99250.28
2023-05-06T17:27:19.231Z,99246.56
2023-05-06T17:29:51.701Z,99257.47
2023-05-06T17:32:23.404Z,99256.22
2023-05-06T17:34:55.177Z,99255.44
2023-05-06T17:37:27.392Z,99260.25
2023-05-06T17:39:59.295Z,99257.03
2023-05-06T17:42:32.010Z,99265.69
2023-05-06T17:45:04.048Z,99260.25
2023-05-06T17:47:36.040Z,99278.59
2023-05-06T17:50:09.232Z,99268.81
2023-05-06T17:52:41.050Z,99276.59
2023-05-06T17:55:16.877Z,99284.78
2023-05-06T17:57:49.469Z,99286.72
2023-05-06T18:00:21.785Z,99292.22
2023-05-06T18:02:53.539Z,99296.31
2023-05-06T18:05:26.360Z,99308.50
2023-05-06T18:07:58.507Z,99309.91
2023-05-06T18:10:30.475Z,99312.63
2023-05-06T18:13:02.350Z,99317.34
2023-05-06T18:15:34.260Z,99312.88
2023-05-06T18:18:06.186Z,99317.25
2023-05-06T18:20:38.083Z,99321.59
2023-05-06T18:23:10.089Z,99327.38
2023-05-06T18:25:41.843Z,99329.94
2023-05-06T18:28:13.541Z,99333.91
2023-05-06T18:30:45.464Z,99341.72
2023-05-06T18:33:20.164Z,99344.59
2023-05-06T18:35:52.040Z,99346.03
2023-05-06T18:38:26.439Z,99355.31
2023-05-06T18:40:58.273Z,99352.50
2023-05-06T18:43:30.789Z,99357.28
2023-05-06T18:46:05.222Z,99357.47
2023-05-06T18:48:37.281Z,99352.81
2023-05-06T18:51:20.832Z,99359.41
2023-05-06T18:53:52.533Z,99363.75
2023-05-06T18:56:24.360Z,99365.03
2023-05-06T18:58:56.586Z,99373.25
2023-05-06T19:01:30.505Z,99375.94
2023-05-06T19:04:02.367Z,99372.66
2023-05-06T19:06:34.733Z,99381.44
2023-05-06T19:09:09.388Z,99375.91
2023-05-06T19:11:41.144Z,99391.94
2023-05-06T19:14:13.002Z,99392.19
2023-05-06T19:16:45.112Z,99397.94
2023-05-06T19:19:16.821Z,99394.91
2023-05-06T19:21:48.577Z,99397.16
2023-05-06T19:24:20.291Z,99397.41
2023-05-06T19:26:52.035Z,99398.44
2023-05-06T19:29:25.871Z,99390.22
2023-05-06T19:31:57.565Z,99398.22
2023-05-06T19:34:29.500Z,99402.09
2023-05-06T19:37:01.594Z,99404.19
2023-05-06T19:39:33.261Z,99399.25
2023-05-06T19:42:05.411Z,99412.19
2023-05-06T19:44:37.167Z,99409.72
2023-05-06T19:47:09.131Z,99413.03
2023-05-06T19:49:40.886Z,99415.88
2023-05-06T19:52:12.911Z,99424.53
2023-05-06T19:54:44.633Z,99420.16
2023-05-06T19:57:16.437Z,99422.81
2023-05-06T19:59:48.244Z,99428.13
2023-05-06T20:02:20.395Z,99435.50
2023-05-06T20:04:52.182Z,99441.22
2023-05-06T20:07:27.779Z,99438.31
2023-05-06T20:09:59.606Z,99441.38
2023-05-06T20:12:31.373Z,99447.91
2023-05-06T20:15:06.975Z,99446.75
2023-05-06T20:17:38.866Z,99445.09
2023-05-06T20:20:11.702Z,99443.88
2023-05-06T20:22:43.655Z,99440.94
2023-05-06T20:25:17.558Z,99446.59
2023-05-06T20:27:49.379Z,99440.34
2023-05-06T20:30:21.395Z,99439.50
2023-05-06T20:32:53.255Z,99442.91
2023-05-06T20:35:25.735Z,99445.50
2023-05-06T20:37:57.557Z,99444.06
2023-05-06T20:40:29.326Z,99445.81
2023-05-06T20:43:01.216Z,99453.13
2023-05-06T20:45:35.419Z,99452.50
2023-05-06T20:48:07.330Z,99447.53
2023-05-06T20:50:39.142Z,99459.50
2023-05-06T20:53:11.067Z,99456.91
2023-05-06T20:55:43.292Z,99454.25
2023-05-06T20:58:15.182Z,99461.97
2023-05-06T21:00:46.922Z,99465.00
2023-05-06T21:03:18.709Z,99469.69
2023-05-06T21:05:50.612Z,99467.59
2023-05-06T21:08:22.440Z,99464.09
2023-05-06T21:10:54.185Z,99466.50
2023-05-06T21:13:26.058Z,99472.25
2023-05-06T21:15:59.115Z,99472.09
2023-05-06T21:18:30.989Z,99470.47
2023-05-06T21:21:03.120Z,99474.81
2023-05-06T21:23:35.511Z,99479.38
2023-05-06T21:26:07.476Z,99480.03
2023-05-06T21:28:39.249Z,99480.28
2023-05-06T21:31:11.057Z,99478.34
2023-05-06T21:33:42.874Z,99478.63
2023-05-06T21:36:14.572Z,99485.00
2023-05-06T21:38:59.709Z,99487.19
2023-05-06T21:41:31.509Z,99486.63
2023-05-06T21:44:04.306Z,99492.16
2023-05-06T21:46:37.835Z,99483.66
2023-05-06T21:49:09.813Z,99480.72
2023-05-06T21:51:44.527Z,99484.25
2023-05-06T21:54:17.417Z,99474.38
2023-05-06T21:56:49.595Z,99486.78
2023-05-06T21:59:21.649Z,99487.63
2023-05-06T22:01:53.517Z,99488.81
2023-05-06T22:04:26.288Z,99483.56
2023-05-06T22:07:00.943Z,99490.81
2023-05-06T22:09:32.541Z,99479.56
2023-05-06T22:12:06.765Z,99483.16
2023-05-06T22:14:41.573Z,99487.34
2023-05-06T22:17:13.535Z,99494.75
2023-05-06T22:19:45.369Z,99497.28
2023-05-06T22:22:17.388Z,99499.28
2023-05-06T22:24:50.501Z,99507.41
2023-05-06T22:27:22.224Z,99505.72
2023-05-06T22:29:53.916Z,99507.94
2023-05-06T22:32:25.728Z,99509.28
2023-05-06T22:34:57.483Z,99506.28
2023-05-06T22:37:29.249Z,99516.50
2023-05-06T22:40:04.359Z,99506.13
2023-05-06T22:42:39.041Z,99515.59
2023-05-06T22:45:10.982Z,99515.91
2023-05-06T22:47:43.076Z,99513.97
2023-05-06T22:50:14.910Z,99515.66
2023-05-06T22:52:46.683Z,99508.91
2023-05-06T22:55:18.474Z,99509.34
2023-05-06T22:57:50.266Z,99502.69
2023-05-06T23:00:22.778Z,99503.25
2023-05-06T23:02:54.484Z,99514.59
2023-05-06T23:05:26.229Z,99500.69
2023-05-06T23:07:57.952Z,99498.69
2023-05-06T23:10:29.721Z,99509.91
2023-05-06T23:13:02.503Z,99508.56
2023-05-06T23:15:34.290Z,99511.41
2023-05-06T23:18:06.722Z,99501.16
2023-05-06T23:20:38.580Z,99510.59
2023-05-06T23:23:10.790Z,99497.34
2023-05-06T23:25:42.670Z,99492.63
2023-05-06T23:28:14.336Z,99496.22
2023-05-06T23:30:46.336Z,99497.06
2023-05-06T23:33:18.034Z,99504.63
2023-05-06T23:35:52.979Z,99497.88
2023-05-06T23:38:25.007Z,99506.13
2023-05-06T23:40:56.829Z,99497.34
2023-05-06T23:43:28.498Z,99494.69
2023-05-06T23:46:00.366Z,99500.88
2023-05-06T23:48:32.108Z,99503.47
2023-05-06T23:51:04.004Z,99501.81
2023-05-06T23:53:36.164Z,99500.53
2023-05-06T23:56:07.884Z,99499.53
2023-05-06T23:58:39.612Z,99500.16
